METAR Formatted Surface Weather Observation
Issued by NWS Charleston, WV

Home | Current Version | Previous Version | Text Only | Print | Product List | Glossary On
Versions: 1 2 3
000
SAUS41 KRLX 161736 COR
MTRCRW
SPECI KCRW 161730Z VRB03KT 10SM SCT011 BKN019 OVC035 17/13 A3011 RMK
AO2 BKN V OVC T01720133



USA.gov is the U.S. government's official web portal to all federal, state and local government web resources and services.